createdAt,value
2023-05-08T00:00:43.785Z,20.71
2023-05-08T00:03:53.753Z,20.70
2023-05-08T00:06:56.945Z,20.74
2023-05-08T00:09:59.675Z,20.67
2023-05-08T00:13:01.905Z,20.70
2023-05-08T00:16:04.906Z,20.70
2023-05-08T00:19:09.611Z,20.71
2023-05-08T00:22:12.253Z,20.68
2023-05-08T00:25:14.946Z,20.67
2023-05-08T00:28:17.556Z,20.68
2023-05-08T00:31:19.907Z,20.67
2023-05-08T00:34:22.862Z,20.64
2023-05-08T00:37:25.386Z,20.64
2023-05-08T00:40:28.333Z,20.61
2023-05-08T00:43:30.789Z,20.48
2023-05-08T00:46:33.809Z,20.51
2023-05-08T00:49:36.255Z,20.54
2023-05-08T00:52:39.699Z,20.53
2023-05-08T00:55:43.101Z,20.53
2023-05-08T00:58:46.198Z,20.53
2023-05-08T01:01:53.124Z,20.51
2023-05-08T01:04:56.726Z,20.50
2023-05-08T01:07:58.695Z,20.41
2023-05-08T01:11:16.566Z,20.43
2023-05-08T01:14:32.407Z,20.48
2023-05-08T01:18:02.532Z,20.41
2023-05-08T01:21:23.183Z,20.23
2023-05-08T01:24:48.792Z,19.76
2023-05-08T01:28:20.749Z,19.72
2023-05-08T01:31:33.084Z,19.50
2023-05-08T01:34:41.607Z,19.14
2023-05-08T01:37:59.116Z,18.84
2023-05-08T01:41:10.927Z,19.01
2023-05-08T01:44:20.258Z,19.15
2023-05-08T01:47:26.209Z,19.61
2023-05-08T01:50:36.696Z,19.93
2023-05-08T01:53:45.373Z,20.08
2023-05-08T01:56:50.577Z,20.16
2023-05-08T01:59:57.471Z,20.22
2023-05-08T02:03:01.014Z,20.27
2023-05-08T02:06:04.884Z,20.32
2023-05-08T02:09:12.085Z,20.32
2023-05-08T02:12:17.699Z,20.40
2023-05-08T02:15:22.161Z,20.41
2023-05-08T02:18:26.116Z,20.43
2023-05-08T02:21:29.277Z,20.40
2023-05-08T02:24:34.768Z,20.34
2023-05-08T02:27:38.139Z,20.32
2023-05-08T02:30:40.871Z,20.30
2023-05-08T02:33:45.421Z,20.27
2023-05-08T02:36:49.687Z,20.30
2023-05-08T02:39:56.189Z,20.20
2023-05-08T02:42:58.848Z,19.92
2023-05-08T02:46:25.184Z,20.08
2023-05-08T02:49:30.416Z,20.15
2023-05-08T02:52:43.068Z,20.17
2023-05-08T02:55:53.913Z,20.23
2023-05-08T02:59:07.322Z,20.19
2023-05-08T03:02:40.800Z,20.22
2023-05-08T03:05:51.088Z,20.17
2023-05-08T03:08:57.871Z,20.20
2023-05-08T03:12:06.694Z,20.23
2023-05-08T03:15:24.802Z,20.17
2023-05-08T03:18:41.944Z,19.97
2023-05-08T03:21:45.392Z,19.97
2023-05-08T03:24:52.002Z,19.96
2023-05-08T03:27:55.652Z,20.06
2023-05-08T03:30:59.600Z,20.13
2023-05-08T03:34:04.595Z,20.17
2023-05-08T03:37:07.521Z,20.19
2023-05-08T03:40:10.261Z,20.19
2023-05-08T03:43:14.321Z,20.19
2023-05-08T03:46:18.407Z,20.17
2023-05-08T03:49:23.986Z,20.19
2023-05-08T03:52:26.796Z,20.15
2023-05-08T03:55:31.344Z,20.15
2023-05-08T03:58:53.607Z,20.09
2023-05-08T04:02:21.609Z,19.93
2023-05-08T04:05:24.141Z,19.51
2023-05-08T04:08:34.754Z,19.57
2023-05-08T04:11:56.011Z,19.42
2023-05-08T04:15:22.830Z,19.39
2023-05-08T04:18:31.390Z,19.51
2023-05-08T04:21:41.040Z,19.71
2023-05-08T04:24:46.088Z,19.85
2023-05-08T04:27:51.433Z,19.96
2023-05-08T04:30:57.036Z,20.03
2023-05-08T04:34:00.003Z,20.06
2023-05-08T04:37:03.117Z,20.20
2023-05-08T04:40:06.972Z,20.13
2023-05-08T04:43:10.073Z,20.10
2023-05-08T04:46:13.776Z,20.12
2023-05-08T04:49:16.586Z,20.12
2023-05-08T04:52:22.148Z,20.12
2023-05-08T04:55:24.675Z,20.10
2023-05-08T04:58:29.110Z,20.10
2023-05-08T05:01:31.664Z,20.10
2023-05-08T05:04:35.694Z,20.13
2023-05-08T05:07:39.209Z,20.13
2023-05-08T05:10:42.476Z,20.13
2023-05-08T05:13:44.530Z,20.15
2023-05-08T05:16:47.390Z,20.16
2023-05-08T05:19:51.418Z,20.17
2023-05-08T05:22:55.422Z,20.16
2023-05-08T05:25:57.919Z,20.13
2023-05-08T05:29:02.253Z,20.13
2023-05-08T05:32:07.484Z,20.20
2023-05-08T05:35:10.824Z,20.20
2023-05-08T05:38:13.423Z,20.20
2023-05-08T05:41:16.694Z,20.25
2023-05-08T05:44:19.530Z,20.23
2023-05-08T05:47:22.503Z,20.22
2023-05-08T05:50:24.950Z,20.20
2023-05-08T05:53:27.736Z,20.22
2023-05-08T05:56:30.542Z,20.26
2023-05-08T05:59:33.579Z,20.25
2023-05-08T06:02:37.238Z,20.29
2023-05-08T06:05:41.394Z,20.32
2023-05-08T06:08:43.679Z,20.33
2023-05-08T06:11:46.360Z,20.32
2023-05-08T06:14:48.522Z,20.34
2023-05-08T06:17:51.601Z,20.36
2023-05-08T06:20:58.313Z,20.34
2023-05-08T06:24:00.970Z,20.47
2023-05-08T06:27:03.745Z,20.53
2023-05-08T06:30:11.029Z,20.60
2023-05-08T06:33:13.606Z,20.66
2023-05-08T06:36:16.385Z,20.58
2023-05-08T06:39:19.506Z,20.57
2023-05-08T06:42:23.288Z,20.54
2023-05-08T06:45:27.170Z,20.51
2023-05-08T06:48:30.298Z,20.53
2023-05-08T06:51:32.929Z,20.54
2023-05-08T06:54:35.822Z,20.53
2023-05-08T06:57:38.269Z,20.53
2023-05-08T07:00:43.060Z,20.54
2023-05-08T07:03:45.645Z,20.54
2023-05-08T07:06:51.404Z,20.58
2023-05-08T07:09:53.598Z,20.56
2023-05-08T07:12:56.324Z,20.57
2023-05-08T07:15:58.960Z,20.54
2023-05-08T07:19:01.860Z,20.57
2023-05-08T07:22:05.748Z,20.60
2023-05-08T07:25:09.239Z,20.58
2023-05-08T07:28:12.486Z,20.58
2023-05-08T07:31:15.668Z,20.58
2023-05-08T07:34:18.443Z,20.61
2023-05-08T07:37:24.000Z,20.54
2023-05-08T07:40:26.201Z,20.54
2023-05-08T07:43:29.036Z,20.53
2023-05-08T07:46:31.543Z,20.56
2023-05-08T07:49:34.488Z,20.57
2023-05-08T07:52:36.560Z,20.60
2023-05-08T07:55:39.529Z,20.58
2023-05-08T07:58:43.241Z,20.63
2023-05-08T08:01:47.629Z,20.61
2023-05-08T08:04:49.799Z,20.67
2023-05-08T08:07:52.965Z,20.64
2023-05-08T08:10:55.949Z,20.83
2023-05-08T08:13:58.447Z,20.92
2023-05-08T08:17:03.838Z,20.99
2023-05-08T08:20:06.728Z,21.11
2023-05-08T08:23:09.025Z,21.24
2023-05-08T08:26:11.665Z,21.32
2023-05-08T08:29:13.894Z,21.38
2023-05-08T08:32:16.534Z,21.38
2023-05-08T08:35:19.093Z,21.42
2023-05-08T08:38:22.024Z,21.45
2023-05-08T08:41:24.135Z,21.46
2023-05-08T08:44:28.175Z,21.49
2023-05-08T08:47:38.147Z,21.53
2023-05-08T08:50:44.941Z,21.56
2023-05-08T08:53:49.773Z,21.63
2023-05-08T08:56:54.872Z,21.69
2023-05-08T08:59:59.804Z,21.76
2023-05-08T09:03:03.143Z,21.72
2023-05-08T09:06:05.964Z,21.69
2023-05-08T09:09:08.607Z,21.63
2023-05-08T09:12:12.612Z,21.63
2023-05-08T09:15:15.853Z,21.63
2023-05-08T09:18:19.413Z,21.62
2023-05-08T09:21:23.458Z,21.69
2023-05-08T09:24:30.161Z,21.76
2023-05-08T09:27:34.835Z,21.82
2023-05-08T09:30:50.491Z,21.85
2023-05-08T09:33:53.164Z,21.85
2023-05-08T09:36:56.914Z,21.90
2023-05-08T09:40:19.576Z,21.92
2023-05-08T09:43:21.745Z,22.00
2023-05-08T09:46:27.191Z,22.04
2023-05-08T09:49:29.394Z,22.07
2023-05-08T09:52:34.026Z,22.14
2023-05-08T09:55:48.899Z,22.17
2023-05-08T09:58:53.060Z,22.21
2023-05-08T10:01:56.611Z,22.24
2023-05-08T10:05:00.722Z,22.34
2023-05-08T10:08:23.665Z,22.40
2023-05-08T10:11:26.630Z,22.43
2023-05-08T10:14:28.729Z,22.43
2023-05-08T10:18:06.535Z,22.41
2023-05-08T10:21:09.679Z,22.37
2023-05-08T10:24:16.842Z,22.41
2023-05-08T10:27:33.782Z,22.40
2023-05-08T10:30:38.860Z,22.43
2023-05-08T10:33:47.579Z,22.43
2023-05-08T10:36:52.199Z,22.41
2023-05-08T10:39:58.428Z,22.43
2023-05-08T10:43:01.633Z,22.45
2023-05-08T10:46:16.290Z,22.45
2023-05-08T10:49:43.897Z,22.45
2023-05-08T10:53:12.739Z,22.50
2023-05-08T10:56:16.104Z,22.53
2023-05-08T10:59:22.952Z,22.48
2023-05-08T11:02:33.058Z,22.51
2023-05-08T11:05:49.058Z,22.50
2023-05-08T11:08:57.281Z,22.47
2023-05-08T11:12:06.886Z,22.43
2023-05-08T11:15:10.881Z,22.37
2023-05-08T11:18:17.949Z,22.30
2023-05-08T11:21:24.610Z,22.30
2023-05-08T11:24:38.840Z,22.34
2023-05-08T11:27:50.170Z,22.34
2023-05-08T11:30:58.792Z,22.30
2023-05-08T11:34:01.486Z,22.32
2023-05-08T11:37:10.362Z,22.40
2023-05-08T11:40:54.372Z,22.51
2023-05-08T11:44:16.577Z,22.53
2023-05-08T11:47:19.995Z,22.63
2023-05-08T11:50:24.693Z,22.64
2023-05-08T11:53:27.227Z,22.69
2023-05-08T11:56:30.752Z,22.75
2023-05-08T11:59:37.129Z,22.83
2023-05-08T12:02:42.068Z,22.87
2023-05-08T12:05:44.711Z,22.88
2023-05-08T12:08:47.868Z,22.94
2023-05-08T12:11:58.231Z,22.94
2023-05-08T12:15:02.246Z,22.98
2023-05-08T12:18:04.439Z,22.98
2023-05-08T12:21:07.505Z,22.95
2023-05-08T12:24:13.836Z,22.99
2023-05-08T12:27:16.586Z,23.04
2023-05-08T12:30:19.400Z,23.09
2023-05-08T12:33:22.421Z,23.11
2023-05-08T12:36:25.098Z,23.18
2023-05-08T12:39:27.820Z,23.20
2023-05-08T12:42:45.826Z,23.26
2023-05-08T12:45:52.812Z,23.22
2023-05-08T12:49:04.591Z,23.16
2023-05-08T12:52:09.262Z,23.18
2023-05-08T12:55:24.268Z,23.16
2023-05-08T12:58:29.352Z,23.16
2023-05-08T13:01:31.557Z,23.19
2023-05-08T13:04:38.157Z,23.19
2023-05-08T13:07:40.892Z,23.15
2023-05-08T13:10:50.968Z,23.19
2023-05-08T13:13:53.440Z,23.15
2023-05-08T13:16:56.821Z,23.16
2023-05-08T13:20:00.078Z,23.09
2023-05-08T13:23:03.379Z,23.11
2023-05-08T13:26:05.647Z,23.08
2023-05-08T13:29:08.356Z,23.04
2023-05-08T13:32:10.995Z,23.02
2023-05-08T13:35:14.551Z,23.02
2023-05-08T13:38:20.042Z,22.58
2023-05-08T13:41:23.684Z,21.79
2023-05-08T13:44:26.334Z,21.78
2023-05-08T13:47:29.808Z,21.97
2023-05-08T13:50:32.095Z,21.76
2023-05-08T13:53:35.091Z,21.83
2023-05-08T13:56:37.702Z,21.88
2023-05-08T13:59:41.241Z,21.93
2023-05-08T14:02:43.947Z,21.50
2023-05-08T14:05:47.821Z,21.66
2023-05-08T14:08:52.722Z,21.41
2023-05-08T14:11:56.944Z,20.46
2023-05-08T14:15:02.069Z,20.90
2023-05-08T14:18:05.189Z,21.70
2023-05-08T14:21:07.477Z,21.88
2023-05-08T14:24:20.678Z,22.06
2023-05-08T14:27:23.720Z,21.86
2023-05-08T14:30:26.721Z,21.17
2023-05-08T14:33:28.911Z,20.27
2023-05-08T14:36:31.658Z,20.02
2023-05-08T14:39:34.387Z,20.03
2023-05-08T14:42:37.956Z,19.83
2023-05-08T14:45:40.862Z,19.76
2023-05-08T14:48:43.463Z,19.71
2023-05-08T14:51:46.345Z,19.25
2023-05-08T14:54:53.681Z,19.04
2023-05-08T14:57:56.771Z,18.63
2023-05-08T15:01:00.559Z,17.95
2023-05-08T15:04:04.538Z,18.49
2023-05-08T15:07:07.762Z,18.81
2023-05-08T15:10:10.929Z,19.78
2023-05-08T15:13:13.969Z,20.12
2023-05-08T15:16:16.633Z,19.27
2023-05-08T15:19:19.905Z,18.05
2023-05-08T15:22:22.888Z,18.37
2023-05-08T15:25:26.360Z,19.32
2023-05-08T15:28:30.287Z,19.07
2023-05-08T15:31:35.211Z,18.40
2023-05-08T15:34:40.695Z,19.25
2023-05-08T15:37:44.868Z,19.90
2023-05-08T15:40:47.654Z,20.19
2023-05-08T15:43:50.821Z,19.24
2023-05-08T15:46:53.493Z,19.95
2023-05-08T15:49:57.071Z,20.99
2023-05-08T15:52:59.596Z,21.29
2023-05-08T15:56:02.473Z,20.84
2023-05-08T15:59:05.103Z,20.50
2023-05-08T16:02:09.069Z,20.48
2023-05-08T16:05:11.596Z,20.83
2023-05-08T16:08:14.430Z,20.67
2023-05-08T16:11:17.022Z,20.64
2023-05-08T16:14:20.711Z,20.98
2023-05-08T16:17:23.237Z,20.78
2023-05-08T16:20:25.932Z,21.05
2023-05-08T16:23:28.219Z,21.29
2023-05-08T16:26:30.955Z,21.28
2023-05-08T16:29:34.612Z,21.53
2023-05-08T16:32:37.058Z,21.67
2023-05-08T16:35:40.327Z,21.70
2023-05-08T16:38:43.761Z,21.75
2023-05-08T16:41:46.299Z,21.75
2023-05-08T16:44:49.052Z,21.78
2023-05-08T16:47:51.534Z,21.82
2023-05-08T16:50:54.206Z,21.82
2023-05-08T16:53:58.085Z,21.80
2023-05-08T16:57:01.072Z,21.79
2023-05-08T17:00:04.939Z,21.65
2023-05-08T17:03:07.698Z,21.72
2023-05-08T17:06:10.041Z,21.70
2023-05-08T17:09:13.117Z,20.97
2023-05-08T17:12:17.168Z,21.11
2023-05-08T17:15:19.781Z,21.29
2023-05-08T17:18:22.276Z,21.39
2023-05-08T17:21:25.797Z,21.58
2023-05-08T17:24:31.093Z,21.65
2023-05-08T17:27:36.266Z,21.67
2023-05-08T17:30:39.093Z,21.70
2023-05-08T17:33:42.514Z,21.69
2023-05-08T17:36:44.912Z,21.70
2023-05-08T17:39:47.401Z,21.72
2023-05-08T17:42:49.588Z,21.73
2023-05-08T17:45:52.240Z,21.72
2023-05-08T17:48:55.534Z,21.67
2023-05-08T17:51:58.670Z,21.72
2023-05-08T17:55:00.953Z,21.72
2023-05-08T17:58:03.539Z,21.66
2023-05-08T18:01:07.352Z,21.69
2023-05-08T18:04:10.327Z,21.70
2023-05-08T18:07:13.562Z,21.70
2023-05-08T18:10:16.587Z,21.70
2023-05-08T18:13:19.065Z,21.70
2023-05-08T18:16:22.736Z,21.67
2023-05-08T18:19:25.739Z,21.67
2023-05-08T18:22:28.201Z,21.66
2023-05-08T18:25:30.790Z,21.67
2023-05-08T18:28:33.727Z,21.66
2023-05-08T18:31:36.119Z,21.65
2023-05-08T18:34:39.041Z,21.63
2023-05-08T18:37:43.018Z,21.63
2023-05-08T18:40:46.371Z,21.59
2023-05-08T18:43:48.833Z,21.59
2023-05-08T18:46:52.409Z,21.56
2023-05-08T18:49:57.985Z,21.59
2023-05-08T18:53:01.169Z,21.55
2023-05-08T18:56:04.496Z,21.56
2023-05-08T18:59:07.068Z,21.53
2023-05-08T19:02:09.342Z,21.52
2023-05-08T19:05:12.409Z,21.50
2023-05-08T19:08:16.132Z,21.49
2023-05-08T19:11:20.264Z,21.32
2023-05-08T19:14:22.546Z,21.27
2023-05-08T19:17:25.109Z,21.29
2023-05-08T19:20:27.561Z,21.28
2023-05-08T19:23:30.400Z,21.37
2023-05-08T19:26:32.570Z,21.45
2023-05-08T19:29:35.634Z,21.48
2023-05-08T19:32:37.740Z,21.52
2023-05-08T19:35:40.610Z,21.60
2023-05-08T19:38:43.185Z,21.69
2023-05-08T19:41:46.800Z,21.73
2023-05-08T19:44:49.708Z,21.78
2023-05-08T19:47:53.597Z,21.83
2023-05-08T19:50:55.795Z,21.72
2023-05-08T19:53:58.468Z,21.82
2023-05-08T19:57:00.536Z,21.88
2023-05-08T20:00:04.453Z,21.75
2023-05-08T20:03:06.519Z,21.86
2023-05-08T20:06:09.573Z,21.60
2023-05-08T20:09:12.196Z,21.66
2023-05-08T20:12:14.628Z,21.69
2023-05-08T20:15:16.875Z,21.24
2023-05-08T20:18:19.307Z,20.84
2023-05-08T20:21:21.520Z,20.87
2023-05-08T20:24:24.014Z,21.31
2023-05-08T20:27:26.219Z,21.72
2023-05-08T20:30:28.993Z,21.90
2023-05-08T20:33:32.328Z,22.03
2023-05-08T20:36:35.111Z,22.13
2023-05-08T20:39:37.619Z,22.18
2023-05-08T20:42:43.323Z,22.24
2023-05-08T20:45:45.328Z,22.29
2023-05-08T20:48:48.281Z,22.30
2023-05-08T20:51:50.497Z,22.34
2023-05-08T20:54:53.288Z,22.40
2023-05-08T20:57:56.389Z,22.32
2023-05-08T21:00:59.277Z,22.13
2023-05-08T21:04:01.832Z,22.03
2023-05-08T21:07:04.214Z,22.03
2023-05-08T21:10:08.349Z,21.96
2023-05-08T21:13:11.162Z,21.96
2023-05-08T21:16:13.420Z,21.96
2023-05-08T21:19:17.691Z,21.94
2023-05-08T21:22:19.829Z,21.92
2023-05-08T21:25:22.660Z,21.86
2023-05-08T21:28:25.461Z,21.83
2023-05-08T21:31:30.869Z,21.80
2023-05-08T21:34:33.917Z,21.80
2023-05-08T21:37:36.681Z,21.78
2023-05-08T21:40:39.178Z,21.76
2023-05-08T21:43:41.533Z,21.70
2023-05-08T21:46:43.987Z,21.73
2023-05-08T21:49:47.799Z,21.66
2023-05-08T21:52:51.581Z,21.66
2023-05-08T21:55:56.056Z,21.63
2023-05-08T21:58:58.143Z,21.63
2023-05-08T22:02:00.966Z,21.62
2023-05-08T22:05:04.208Z,21.59
2023-05-08T22:08:07.413Z,21.59
2023-05-08T22:11:09.882Z,21.56
2023-05-08T22:14:12.766Z,21.50
2023-05-08T22:17:15.282Z,21.53
2023-05-08T22:20:18.355Z,21.52
2023-05-08T22:23:20.758Z,21.49
2023-05-08T22:26:23.652Z,21.52
2023-05-08T22:29:26.449Z,21.52
2023-05-08T22:32:29.739Z,21.50
2023-05-08T22:35:32.639Z,21.48
2023-05-08T22:38:34.937Z,21.49
2023-05-08T22:41:37.104Z,21.45
2023-05-08T22:44:39.610Z,21.45
2023-05-08T22:47:41.887Z,21.45
2023-05-08T22:50:44.903Z,21.46
2023-05-08T22:53:47.703Z,21.43
2023-05-08T22:56:50.221Z,21.45
2023-05-08T22:59:52.590Z,21.43
2023-05-08T23:02:55.734Z,21.42
2023-05-08T23:05:58.135Z,21.43
2023-05-08T23:09:00.930Z,21.41
2023-05-08T23:12:03.089Z,21.42
2023-05-08T23:15:06.774Z,21.37
2023-05-08T23:18:09.103Z,21.41
2023-05-08T23:21:11.699Z,21.39
2023-05-08T23:24:13.710Z,21.41
2023-05-08T23:27:16.270Z,21.38
2023-05-08T23:30:18.392Z,21.38
2023-05-08T23:33:21.006Z,21.38
2023-05-08T23:36:23.731Z,21.37
2023-05-08T23:39:27.564Z,21.35
2023-05-08T23:42:29.735Z,21.31
2023-05-08T23:45:32.413Z,21.29
2023-05-08T23:48:34.769Z,21.27
2023-05-08T23:51:37.563Z,21.27
2023-05-08T23:54:39.742Z,21.25
2023-05-08T23:57:42.676Z,21.21
